Athens, Maine
Current Conditions -  °F | °C
As of 2:15 PM on Monday 20 Oct 2014 (Local Time) from KWVL Reporting Station
Clear Clear  
Wind Chill: 50°   Ceiling: Unl
Heat Index: 50°   Visibility: 10mi
Dew Point: 23°   Wind: 12mph
Humidity: 35%   Direction: 220°SW
Pressure: 29.89"   Gusts: NA
Location:  44.92°N, 69.67°W
Report Text: KWVL 201815Z 22010KT 210V280 10SM CLR 10/M05 A2989 RMK AO1
Loading
Personal Weather Stations






























Interactive Weather Map
Tropical Storm Tracking
New forecast layout! Learn more

10-Day Weather Forecast

Advertisements
Track Severe Weather on mobile